sensor_id;sensor_type;location;lat;lon;timestamp;temperature;humidity
62912;DHT22;49111;51.028;4.218;2022-12-11T06:50:53;4.30;99.90
62912;DHT22;49111;51.028;4.218;2022-12-11T06:53:19;4.40;99.90
62912;DHT22;49111;51.028;4.218;2022-12-11T06:55:45;4.20;99.90
62912;DHT22;49111;51.028;4.218;2022-12-11T06:58:10;4.30;99.90
62912;DHT22;49111;51.028;4.218;2022-12-11T07:00:37;4.30;99.90
62912;DHT22;49111;51.028;4.218;2022-12-11T07:03:03;4.30;99.90
62912;DHT22;49111;51.028;4.218;2022-12-11T07:05:31;4.30;99.90
62912;DHT22;49111;51.028;4.218;2022-12-11T07:07:57;4.40;99.90
62912;DHT22;49111;51.028;4.218;2022-12-11T07:10:23;4.30;99.90
62912;DHT22;49111;51.028;4.218;2022-12-11T07:12:51;4.40;99.90
62912;DHT22;49111;51.028;4.218;2022-12-11T07:15:16;4.30;99.90
62912;DHT22;49111;51.028;4.218;2022-12-11T07:17:42;4.40;99.90
62912;DHT22;49111;51.028;4.218;2022-12-11T07:20:08;4.40;99.90
62912;DHT22;49111;51.028;4.218;2022-12-11T07:22:34;4.50;99.90
62912;DHT22;49111;51.028;4.218;2022-12-11T07:25:00;4.50;99.90
62912;DHT22;49111;51.028;4.218;2022-12-11T07:27:26;4.50;99.90
62912;DHT22;49111;51.028;4.218;2022-12-11T07:29:52;4.60;99.90
62912;DHT22;49111;51.028;4.218;2022-12-11T07:32:20;4.60;99.90
62912;DHT22;49111;51.028;4.218;2022-12-11T07:34:47;4.60;99.90
62912;DHT22;49111;51.028;4.218;2022-12-11T07:37:13;4.40;99.90
62912;DHT22;49111;51.028;4.218;2022-12-11T07:39:39;4.40;99.90
62912;DHT22;49111;51.028;4.218;2022-12-11T07:42:04;4.40;99.90
62912;DHT22;49111;51.028;4.218;2022-12-11T07:44:30;4.40;99.90
62912;DHT22;49111;51.028;4.218;2022-12-11T07:46:56;4.40;99.90
62912;DHT22;49111;51.028;4.218;2022-12-11T07:49:22;4.40;99.90
62912;DHT22;49111;51.028;4.218;2022-12-11T07:51:47;4.30;99.90
62912;DHT22;49111;51.028;4.218;2022-12-11T07:54:14;4.40;99.90
62912;DHT22;49111;51.028;4.218;2022-12-11T07:56:45;4.50;99.90
62912;DHT22;49111;51.028;4.218;2022-12-11T07:59:12;4.60;99.90
62912;DHT22;49111;51.028;4.218;2022-12-11T08:01:39;4.40;99.90
62912;DHT22;49111;51.028;4.218;2022-12-11T08:04:06;4.40;99.90
62912;DHT22;49111;51.028;4.218;2022-12-11T08:06:35;4.30;99.90
62912;DHT22;49111;51.028;4.218;2022-12-11T08:09:04;4.30;99.90
62912;DHT22;49111;51.028;4.218;2022-12-11T08:11:30;4.40;99.90
62912;DHT22;49111;51.028;4.218;2022-12-11T08:13:57;4.40;99.90
62912;DHT22;49111;51.028;4.218;2022-12-11T08:16:23;4.40;99.90
62912;DHT22;49111;51.028;4.218;2022-12-11T08:18:50;4.40;99.90
62912;DHT22;49111;51.028;4.218;2022-12-11T08:21:21;4.40;99.90
62912;DHT22;49111;51.028;4.218;2022-12-11T08:23:48;4.40;99.90
62912;DHT22;49111;51.028;4.218;2022-12-11T08:26:17;4.40;99.90
62912;DHT22;49111;51.028;4.218;2022-12-11T08:28:44;4.50;99.90
62912;DHT22;49111;51.028;4.218;2022-12-11T08:31:11;4.50;99.90
62912;DHT22;49111;51.028;4.218;2022-12-11T08:33:38;4.50;99.90
62912;DHT22;49111;51.028;4.218;2022-12-11T08:36:09;4.50;99.90
62912;DHT22;49111;51.028;4.218;2022-12-11T08:38:36;4.50;99.90
62912;DHT22;49111;51.028;4.218;2022-12-11T08:41:16;4.60;99.90
62912;DHT22;49111;51.028;4.218;2022-12-11T08:43:43;4.60;99.90
62912;DHT22;49111;51.028;4.218;2022-12-11T08:46:10;4.60;99.90
62912;DHT22;49111;51.028;4.218;2022-12-11T08:48:38;4.60;99.90
62912;DHT22;49111;51.028;4.218;2022-12-11T08:51:06;4.60;99.90
62912;DHT22;49111;51.028;4.218;2022-12-11T08:53:32;4.50;99.90
62912;DHT22;49111;51.028;4.218;2022-12-11T08:56:05;4.50;99.90
62912;DHT22;49111;51.028;4.218;2022-12-11T08:58:31;4.50;99.90
62912;DHT22;49111;51.028;4.218;2022-12-11T09:00:57;4.60;99.90
62912;DHT22;49111;51.028;4.218;2022-12-11T09:03:23;4.70;99.90
62912;DHT22;49111;51.028;4.218;2022-12-11T09:05:49;4.60;99.90
62912;DHT22;49111;51.028;4.218;2022-12-11T09:08:15;4.70;99.90
62912;DHT22;49111;51.028;4.218;2022-12-11T09:10:41;4.70;99.90
62912;DHT22;49111;51.028;4.218;2022-12-11T09:13:07;5.00;99.90
62912;DHT22;49111;51.028;4.218;2022-12-11T09:15:33;4.70;99.90
62912;DHT22;49111;51.028;4.218;2022-12-11T09:17:58;4.70;99.90
62912;DHT22;49111;51.028;4.218;2022-12-11T09:20:24;4.80;99.90
62912;DHT22;49111;51.028;4.218;2022-12-11T09:22:50;4.80;99.90
62912;DHT22;49111;51.028;4.218;2022-12-11T09:25:16;5.00;99.90
62912;DHT22;49111;51.028;4.218;2022-12-11T09:27:41;4.80;99.90
62912;DHT22;49111;51.028;4.218;2022-12-11T09:30:08;4.70;99.90
62912;DHT22;49111;51.028;4.218;2022-12-11T09:32:34;4.60;99.90
62912;DHT22;49111;51.028;4.218;2022-12-11T09:34:59;4.60;99.90
62912;DHT22;49111;51.028;4.218;2022-12-11T09:37:25;4.80;99.90
62912;DHT22;49111;51.028;4.218;2022-12-11T09:39:51;4.80;99.90
62912;DHT22;49111;51.028;4.218;2022-12-11T09:45:03;4.80;99.90
62912;DHT22;49111;51.028;4.218;2022-12-11T09:47:40;4.70;99.90
62912;DHT22;49111;51.028;4.218;2022-12-11T09:50:17;4.80;99.90
62912;DHT22;49111;51.028;4.218;2022-12-11T10:01:35;4.60;99.90
62912;DHT22;49111;51.028;4.218;2022-12-11T10:04:33;4.70;99.90
62912;DHT22;49111;51.028;4.218;2022-12-11T10:07:28;4.70;99.90
62912;DHT22;49111;51.028;4.218;2022-12-11T10:15:45;4.60;99.90
62912;DHT22;49111;51.028;4.218;2022-12-11T10:18:16;4.80;99.90
62912;DHT22;49111;51.028;4.218;2022-12-11T10:20:42;4.80;99.90
62912;DHT22;49111;51.028;4.218;2022-12-11T10:23:19;4.80;99.90
62912;DHT22;49111;51.028;4.218;2022-12-11T10:26:39;5.00;99.90
62912;DHT22;49111;51.028;4.218;2022-12-11T10:29:01;5.00;99.90
62912;DHT22;49111;51.028;4.218;2022-12-11T10:34:12;5.10;99.90
62912;DHT22;49111;51.028;4.218;2022-12-11T10:36:41;5.10;99.90
62912;DHT22;49111;51.028;4.218;2022-12-11T10:39:13;5.10;99.90
62912;DHT22;49111;51.028;4.218;2022-12-11T10:41:43;5.20;99.90
62912;DHT22;49111;51.028;4.218;2022-12-11T10:49:33;5.20;99.90
62912;DHT22;49111;51.028;4.218;2022-12-11T10:52:00;5.20;99.90
62912;DHT22;49111;51.028;4.218;2022-12-11T10:56:53;5.20;99.90
62912;DHT22;49111;51.028;4.218;2022-12-11T10:59:44;5.10;99.90
62912;DHT22;49111;51.028;4.218;2022-12-11T11:02:26;5.00;99.90
62912;DHT22;49111;51.028;4.218;2022-12-11T11:04:54;4.80;99.90
62912;DHT22;49111;51.028;4.218;2022-12-11T11:07:23;4.70;99.90
62912;DHT22;49111;51.028;4.218;2022-12-11T11:09:50;4.80;99.90
62912;DHT22;49111;51.028;4.218;2022-12-11T11:12:25;4.70;99.90
62912;DHT22;49111;51.028;4.218;2022-12-11T11:15:03;4.70;99.90
62912;DHT22;49111;51.028;4.218;2022-12-11T11:17:31;4.90;99.90
62912;DHT22;49111;51.028;4.218;2022-12-11T11:19:59;5.00;99.90
62912;DHT22;49111;51.028;4.218;2022-12-11T11:22:30;5.10;99.90
62912;DHT22;49111;51.028;4.218;2022-12-11T11:24:58;5.40;99.90
62912;DHT22;49111;51.028;4.218;2022-12-11T11:27:43;5.30;99.90
62912;DHT22;49111;51.028;4.218;2022-12-11T11:30:32;5.30;99.90
62912;DHT22;49111;51.028;4.218;2022-12-11T11:36:06;5.40;99.90
62912;DHT22;49111;51.028;4.218;2022-12-11T11:38:43;5.40;99.90
62912;DHT22;49111;51.028;4.218;2022-12-11T11:41:13;5.40;99.90
62912;DHT22;49111;51.028;4.218;2022-12-11T11:46:22;5.20;99.90
62912;DHT22;49111;51.028;4.218;2022-12-11T11:49:58;5.20;99.90
62912;DHT22;49111;51.028;4.218;2022-12-11T11:52:06;5.40;99.90
62912;DHT22;49111;51.028;4.218;2022-12-11T11:54:39;5.40;99.90
62912;DHT22;49111;51.028;4.218;2022-12-11T11:57:46;5.40;99.90
62912;DHT22;49111;51.028;4.218;2022-12-11T12:00:24;5.40;99.90
62912;DHT22;49111;51.028;4.218;2022-12-11T12:02:53;5.40;99.90
62912;DHT22;49111;51.028;4.218;2022-12-11T12:05:49;5.40;99.90
62912;DHT22;49111;51.028;4.218;2022-12-11T12:11:04;5.60;99.90
62912;DHT22;49111;51.028;4.218;2022-12-11T12:16:40;5.70;99.90
62912;DHT22;49111;51.028;4.218;2022-12-11T12:25:09;5.80;99.90
62912;DHT22;49111;51.028;4.218;2022-12-11T12:31:07;5.70;99.90
62912;DHT22;49111;51.028;4.218;2022-12-11T12:47:52;5.80;99.90
62912;DHT22;49111;51.028;4.218;2022-12-11T12:50:20;5.80;99.90
62912;DHT22;49111;51.028;4.218;2022-12-11T12:52:48;5.70;99.90
62912;DHT22;49111;51.028;4.218;2022-12-11T12:55:23;5.60;99.90
62912;DHT22;49111;51.028;4.218;2022-12-11T12:57:54;5.70;99.90
62912;DHT22;49111;51.028;4.218;2022-12-11T13:00:41;5.70;99.90
62912;DHT22;49111;51.028;4.218;2022-12-11T13:03:22;5.70;99.90
62912;DHT22;49111;51.028;4.218;2022-12-11T13:06:03;5.70;99.90
62912;DHT22;49111;51.028;4.218;2022-12-11T13:08:46;5.60;99.90
62912;DHT22;49111;51.028;4.218;2022-12-11T13:11:16;5.60;99.90
62912;DHT22;49111;51.028;4.218;2022-12-11T13:13:45;5.60;99.90
62912;DHT22;49111;51.028;4.218;2022-12-11T13:18:43;5.50;99.90
62912;DHT22;49111;51.028;4.218;2022-12-11T13:23:54;5.60;99.90
62912;DHT22;49111;51.028;4.218;2022-12-11T13:26:32;5.70;99.90
62912;DHT22;49111;51.028;4.218;2022-12-11T13:28:58;5.50;99.90
62912;DHT22;49111;51.028;4.218;2022-12-11T13:31:37;5.40;99.90
62912;DHT22;49111;51.028;4.218;2022-12-11T13:34:16;5.40;99.90
62912;DHT22;49111;51.028;4.218;2022-12-11T13:36:52;5.30;99.90
62912;DHT22;49111;51.028;4.218;2022-12-11T13:39:24;5.20;99.90
62912;DHT22;49111;51.028;4.218;2022-12-11T13:41:54;5.20;99.90
62912;DHT22;49111;51.028;4.218;2022-12-11T13:44:26;5.10;99.90
62912;DHT22;49111;51.028;4.218;2022-12-11T13:46:58;5.20;99.90
62912;DHT22;49111;51.028;4.218;2022-12-11T13:49:28;5.00;99.90
62912;DHT22;49111;51.028;4.218;2022-12-11T13:51:58;5.00;99.90
62912;DHT22;49111;51.028;4.218;2022-12-11T13:54:26;5.20;99.90
62912;DHT22;49111;51.028;4.218;2022-12-11T13:59:34;5.20;99.90
62912;DHT22;49111;51.028;4.218;2022-12-11T14:04:54;5.30;99.90
62912;DHT22;49111;51.028;4.218;2022-12-11T14:07:28;5.30;99.90
62912;DHT22;49111;51.028;4.218;2022-12-11T14:10:04;5.20;99.90
62912;DHT22;49111;51.028;4.218;2022-12-11T14:12:31;5.20;99.90
62912;DHT22;49111;51.028;4.218;2022-12-11T14:14:58;5.20;99.90
62912;DHT22;49111;51.028;4.218;2022-12-11T14:17:32;5.30;99.90
62912;DHT22;49111;51.028;4.218;2022-12-11T14:20:01;5.60;99.90
62912;DHT22;49111;51.028;4.218;2022-12-11T14:22:29;5.30;99.90
62912;DHT22;49111;51.028;4.218;2022-12-11T14:24:57;5.40;99.90
62912;DHT22;49111;51.028;4.218;2022-12-11T14:27:25;5.50;99.90
62912;DHT22;49111;51.028;4.218;2022-12-11T14:29:51;5.50;99.90
62912;DHT22;49111;51.028;4.218;2022-12-11T14:32:20;5.50;99.90
62912;DHT22;49111;51.028;4.218;2022-12-11T14:34:50;5.50;99.90
62912;DHT22;49111;51.028;4.218;2022-12-11T14:37:18;5.50;99.90
62912;DHT22;49111;51.028;4.218;2022-12-11T14:39:56;5.60;99.90
62912;DHT22;49111;51.028;4.218;2022-12-11T14:42:28;5.50;99.90
62912;DHT22;49111;51.028;4.218;2022-12-11T14:44:56;5.60;99.90
62912;DHT22;49111;51.028;4.218;2022-12-11T14:47:27;5.40;99.90
62912;DHT22;49111;51.028;4.218;2022-12-11T14:50:18;5.50;99.90
62912;DHT22;49111;51.028;4.218;2022-12-11T14:53:14;5.40;99.90
62912;DHT22;49111;51.028;4.218;2022-12-11T14:55:43;5.50;99.90
62912;DHT22;49111;51.028;4.218;2022-12-11T15:00:42;5.40;99.90
62912;DHT22;49111;51.028;4.218;2022-12-11T15:05:48;5.50;99.90
62912;DHT22;49111;51.028;4.218;2022-12-11T15:08:26;5.50;99.90
62912;DHT22;49111;51.028;4.218;2022-12-11T15:13:29;5.30;99.90
62912;DHT22;49111;51.028;4.218;2022-12-11T15:15:55;5.30;99.90
62912;DHT22;49111;51.028;4.218;2022-12-11T15:18:26;5.20;99.90
62912;DHT22;49111;51.028;4.218;2022-12-11T15:20:54;5.30;99.90
62912;DHT22;49111;51.028;4.218;2022-12-11T15:23:21;5.30;99.90
62912;DHT22;49111;51.028;4.218;2022-12-11T15:25:55;5.30;99.90
62912;DHT22;49111;51.028;4.218;2022-12-11T15:28:32;5.30;99.90
62912;DHT22;49111;51.028;4.218;2022-12-11T15:31:01;5.40;99.90
62912;DHT22;49111;51.028;4.218;2022-12-11T15:33:28;5.40;99.90
62912;DHT22;49111;51.028;4.218;2022-12-11T15:36:00;5.40;99.90
62912;DHT22;49111;51.028;4.218;2022-12-11T15:38:32;5.40;99.90
62912;DHT22;49111;51.028;4.218;2022-12-11T15:40:58;5.40;99.90
62912;DHT22;49111;51.028;4.218;2022-12-11T15:43:25;5.40;99.90
62912;DHT22;49111;51.028;4.218;2022-12-11T15:45:51;5.40;99.90
62912;DHT22;49111;51.028;4.218;2022-12-11T15:48:17;5.30;99.90
62912;DHT22;49111;51.028;4.218;2022-12-11T15:50:42;5.30;99.90
62912;DHT22;49111;51.028;4.218;2022-12-11T15:53:08;5.30;99.90
62912;DHT22;49111;51.028;4.218;2022-12-11T15:55:35;5.30;99.90
62912;DHT22;49111;51.028;4.218;2022-12-11T15:58:06;5.20;99.90
62912;DHT22;49111;51.028;4.218;2022-12-11T16:00:32;5.20;99.90
62912;DHT22;49111;51.028;4.218;2022-12-11T16:02:58;5.20;99.90
62912;DHT22;49111;51.028;4.218;2022-12-11T16:05:25;5.20;99.90
62912;DHT22;49111;51.028;4.218;2022-12-11T16:07:51;5.20;99.90
62912;DHT22;49111;51.028;4.218;2022-12-11T16:10:19;5.20;99.90
62912;DHT22;49111;51.028;4.218;2022-12-11T16:12:45;5.20;99.90
62912;DHT22;49111;51.028;4.218;2022-12-11T16:15:13;5.20;99.90
62912;DHT22;49111;51.028;4.218;2022-12-11T16:17:39;5.20;99.90
62912;DHT22;49111;51.028;4.218;2022-12-11T16:20:07;5.20;99.90
62912;DHT22;49111;51.028;4.218;2022-12-11T16:22:33;5.10;99.90
62912;DHT22;49111;51.028;4.218;2022-12-11T16:24:58;5.10;99.90
62912;DHT22;49111;51.028;4.218;2022-12-11T16:27:24;5.20;99.90
62912;DHT22;49111;51.028;4.218;2022-12-11T16:29:50;5.10;99.90
62912;DHT22;49111;51.028;4.218;2022-12-11T16:32:16;5.10;99.90
62912;DHT22;49111;51.028;4.218;2022-12-11T16:34:42;5.20;99.90
62912;DHT22;49111;51.028;4.218;2022-12-11T16:37:08;5.20;99.90
62912;DHT22;49111;51.028;4.218;2022-12-11T16:39:36;5.20;99.90
62912;DHT22;49111;51.028;4.218;2022-12-11T16:42:06;5.10;99.90
62912;DHT22;49111;51.028;4.218;2022-12-11T16:44:31;5.20;99.90
62912;DHT22;49111;51.028;4.218;2022-12-11T16:46:57;5.10;99.90
62912;DHT22;49111;51.028;4.218;2022-12-11T16:49:24;5.20;99.90
62912;DHT22;49111;51.028;4.218;2022-12-11T16:51:50;5.20;99.90
62912;DHT22;49111;51.028;4.218;2022-12-11T16:54:16;5.20;99.90
62912;DHT22;49111;51.028;4.218;2022-12-11T16:56:42;5.10;99.90
62912;DHT22;49111;51.028;4.218;2022-12-11T16:59:08;5.10;99.90
62912;DHT22;49111;51.028;4.218;2022-12-11T17:01:34;5.10;99.90
62912;DHT22;49111;51.028;4.218;2022-12-11T17:04:00;5.00;99.90
62912;DHT22;49111;51.028;4.218;2022-12-11T17:06:26;5.00;99.90
62912;DHT22;49111;51.028;4.218;2022-12-11T17:08:52;5.00;99.90
62912;DHT22;49111;51.028;4.218;2022-12-11T17:11:22;4.90;99.90
62912;DHT22;49111;51.028;4.218;2022-12-11T17:13:57;4.90;99.90
62912;DHT22;49111;51.028;4.218;2022-12-11T17:16:24;4.80;99.90
62912;DHT22;49111;51.028;4.218;2022-12-11T17:18:54;4.80;99.90
62912;DHT22;49111;51.028;4.218;2022-12-11T17:21:20;4.80;99.90
62912;DHT22;49111;51.028;4.218;2022-12-11T17:23:47;4.80;99.90
62912;DHT22;49111;51.028;4.218;2022-12-11T17:26:13;4.80;99.90
62912;DHT22;49111;51.028;4.218;2022-12-11T17:28:39;4.80;99.90
62912;DHT22;49111;51.028;4.218;2022-12-11T17:31:07;4.90;99.90
62912;DHT22;49111;51.028;4.218;2022-12-11T17:33:34;4.80;99.90
62912;DHT22;49111;51.028;4.218;2022-12-11T17:36:04;5.00;99.90
62912;DHT22;49111;51.028;4.218;2022-12-11T17:38:31;4.90;99.90
62912;DHT22;49111;51.028;4.218;2022-12-11T17:40:56;4.90;99.90
62912;DHT22;49111;51.028;4.218;2022-12-11T17:43:22;4.90;99.90
62912;DHT22;49111;51.028;4.218;2022-12-11T17:45:50;4.90;99.90
62912;DHT22;49111;51.028;4.218;2022-12-11T17:48:18;4.90;99.90
62912;DHT22;49111;51.028;4.218;2022-12-11T17:50:47;4.90;99.90
62912;DHT22;49111;51.028;4.218;2022-12-11T17:53:15;4.90;99.90
62912;DHT22;49111;51.028;4.218;2022-12-11T17:55:43;4.90;99.90
62912;DHT22;49111;51.028;4.218;2022-12-11T17:58:10;4.90;99.90
62912;DHT22;49111;51.028;4.218;2022-12-11T18:00:41;4.90;99.90
62912;DHT22;49111;51.028;4.218;2022-12-11T18:03:08;4.90;99.90
62912;DHT22;49111;51.028;4.218;2022-12-11T18:05:34;4.90;99.90
62912;DHT22;49111;51.028;4.218;2022-12-11T18:08:00;4.90;99.90
62912;DHT22;49111;51.028;4.218;2022-12-11T18:10:26;4.90;99.90
62912;DHT22;49111;51.028;4.218;2022-12-11T18:12:52;4.90;99.90
62912;DHT22;49111;51.028;4.218;2022-12-11T18:15:18;4.90;99.90
62912;DHT22;49111;51.028;4.218;2022-12-11T18:17:44;4.80;99.90
62912;DHT22;49111;51.028;4.218;2022-12-11T18:20:11;4.90;99.90
62912;DHT22;49111;51.028;4.218;2022-12-11T18:22:39;4.90;99.90
62912;DHT22;49111;51.028;4.218;2022-12-11T18:25:05;4.90;99.90
62912;DHT22;49111;51.028;4.218;2022-12-11T18:27:32;4.90;99.90
62912;DHT22;49111;51.028;4.218;2022-12-11T18:29:58;4.90;99.90
62912;DHT22;49111;51.028;4.218;2022-12-11T18:32:24;4.90;99.90
62912;DHT22;49111;51.028;4.218;2022-12-11T18:34:50;4.80;99.90
62912;DHT22;49111;51.028;4.218;2022-12-11T18:37:16;4.80;99.90
62912;DHT22;49111;51.028;4.218;2022-12-11T18:39:42;4.80;99.90
62912;DHT22;49111;51.028;4.218;2022-12-11T18:42:07;4.90;99.90
62912;DHT22;49111;51.028;4.218;2022-12-11T18:44:33;4.90;99.90
62912;DHT22;49111;51.028;4.218;2022-12-11T18:46:59;4.90;99.90
62912;DHT22;49111;51.028;4.218;2022-12-11T18:49:24;4.90;99.90
62912;DHT22;49111;51.028;4.218;2022-12-11T18:51:50;5.00;99.90
62912;DHT22;49111;51.028;4.218;2022-12-11T18:54:16;5.00;99.90
62912;DHT22;49111;51.028;4.218;2022-12-11T18:56:42;5.00;99.90
62912;DHT22;49111;51.028;4.218;2022-12-11T18:59:10;4.90;99.90
62912;DHT22;49111;51.028;4.218;2022-12-11T19:01:38;4.80;99.90
62912;DHT22;49111;51.028;4.218;2022-12-11T19:04:04;4.80;99.90
62912;DHT22;49111;51.028;4.218;2022-12-11T19:06:31;4.80;99.90
62912;DHT22;49111;51.028;4.218;2022-12-11T19:08:58;4.80;99.90
62912;DHT22;49111;51.028;4.218;2022-12-11T19:11:26;4.70;99.90
62912;DHT22;49111;51.028;4.218;2022-12-11T19:13:53;4.60;99.90
62912;DHT22;49111;51.028;4.218;2022-12-11T19:16:26;4.70;99.90
62912;DHT22;49111;51.028;4.218;2022-12-11T19:18:56;4.70;99.90
62912;DHT22;49111;51.028;4.218;2022-12-11T19:21:23;4.70;99.90
62912;DHT22;49111;51.028;4.218;2022-12-11T19:23:49;4.60;99.90
62912;DHT22;49111;51.028;4.218;2022-12-11T19:26:18;4.50;99.90
